sensor_id;sensor_type;location;lat;lon;timestamp;temperature;humidity
64833;HTU21D;51290;45.060;38.948;2022-12-29T00:01:33;4.21;78.82
64833;HTU21D;51290;45.060;38.948;2022-12-29T00:03:59;4.21;78.84
64833;HTU21D;51290;45.060;38.948;2022-12-29T00:06:25;4.20;78.83
64833;HTU21D;51290;45.060;38.948;2022-12-29T00:08:51;4.20;78.81
64833;HTU21D;51290;45.060;38.948;2022-12-29T00:11:20;4.18;78.78
64833;HTU21D;51290;45.060;38.948;2022-12-29T00:13:46;4.15;78.79
64833;HTU21D;51290;45.060;38.948;2022-12-29T00:16:31;4.12;78.79
64833;HTU21D;51290;45.060;38.948;2022-12-29T00:18:57;4.09;78.78
64833;HTU21D;51290;45.060;38.948;2022-12-29T00:21:24;4.06;78.75
64833;HTU21D;51290;45.060;38.948;2022-12-29T00:24:13;4.01;78.64
64833;HTU21D;51290;45.060;38.948;2022-12-29T00:29:47;3.79;78.50
64833;HTU21D;51290;45.060;38.948;2022-12-29T00:32:31;3.69;78.54
64833;HTU21D;51290;45.060;38.948;2022-12-29T00:37:50;3.46;78.69
64833;HTU21D;51290;45.060;38.948;2022-12-29T00:40:34;3.34;78.79
64833;HTU21D;51290;45.060;38.948;2022-12-29T00:43:20;3.24;78.83
64833;HTU21D;51290;45.060;38.948;2022-12-29T00:46:04;3.15;78.93
64833;HTU21D;51290;45.060;38.948;2022-12-29T00:48:30;3.08;79.04
64833;HTU21D;51290;45.060;38.948;2022-12-29T00:51:14;2.99;79.18
64833;HTU21D;51290;45.060;38.948;2022-12-29T00:53:40;2.96;79.38
64833;HTU21D;51290;45.060;38.948;2022-12-29T00:56:06;2.94;79.42
64833;HTU21D;51290;45.060;38.948;2022-12-29T00:58:32;2.91;79.37
64833;HTU21D;51290;45.060;38.948;2022-12-29T01:01:07;2.88;79.33
64833;HTU21D;51290;45.060;38.948;2022-12-29T01:03:34;2.84;79.34
64833;HTU21D;51290;45.060;38.948;2022-12-29T01:06:02;2.81;79.40
64833;HTU21D;51290;45.060;38.948;2022-12-29T01:08:30;2.76;79.43
64833;HTU21D;51290;45.060;38.948;2022-12-29T01:11:07;2.73;79.50
64833;HTU21D;51290;45.060;38.948;2022-12-29T01:13:34;2.71;79.51
64833;HTU21D;51290;45.060;38.948;2022-12-29T01:16:01;2.69;79.51
64833;HTU21D;51290;45.060;38.948;2022-12-29T01:18:27;2.66;79.56
64833;HTU21D;51290;45.060;38.948;2022-12-29T01:21:01;2.64;79.59
64833;HTU21D;51290;45.060;38.948;2022-12-29T01:23:28;2.62;79.67
64833;HTU21D;51290;45.060;38.948;2022-12-29T01:25:55;2.64;79.69
64833;HTU21D;51290;45.060;38.948;2022-12-29T01:28:21;2.62;79.68
64833;HTU21D;51290;45.060;38.948;2022-12-29T01:30:47;2.62;79.68
64833;HTU21D;51290;45.060;38.948;2022-12-29T01:33:13;2.60;79.62
64833;HTU21D;51290;45.060;38.948;2022-12-29T01:35:39;2.57;79.59
64833;HTU21D;51290;45.060;38.948;2022-12-29T01:38:05;2.55;79.55
64833;HTU21D;51290;45.060;38.948;2022-12-29T01:40:32;2.52;79.55
64833;HTU21D;51290;45.060;38.948;2022-12-29T01:42:58;2.49;79.56
64833;HTU21D;51290;45.060;38.948;2022-12-29T01:45:24;2.44;79.58
64833;HTU21D;51290;45.060;38.948;2022-12-29T01:47:53;2.40;79.59
64833;HTU21D;51290;45.060;38.948;2022-12-29T01:50:40;2.36;79.56
64833;HTU21D;51290;45.060;38.948;2022-12-29T01:53:20;2.31;79.59
64833;HTU21D;51290;45.060;38.948;2022-12-29T01:55:53;2.27;79.59
64833;HTU21D;51290;45.060;38.948;2022-12-29T01:58:23;2.21;79.62
64833;HTU21D;51290;45.060;38.948;2022-12-29T02:00:50;2.17;79.66
64833;HTU21D;51290;45.060;38.948;2022-12-29T02:03:17;2.12;79.69
64833;HTU21D;51290;45.060;38.948;2022-12-29T02:06:15;2.09;79.69
64833;HTU21D;51290;45.060;38.948;2022-12-29T02:08:43;2.03;79.73
64833;HTU21D;51290;45.060;38.948;2022-12-29T02:11:12;2.00;79.75
64833;HTU21D;51290;45.060;38.948;2022-12-29T02:13:39;1.97;79.78
64833;HTU21D;51290;45.060;38.948;2022-12-29T02:41:46;1.62;80.07
64833;HTU21D;51290;45.060;38.948;2022-12-29T02:47:13;1.57;80.08
64833;HTU21D;51290;45.060;38.948;2022-12-29T02:52:40;1.55;80.10
64833;HTU21D;51290;45.060;38.948;2022-12-29T02:55:11;1.53;80.13
64833;HTU21D;51290;45.060;38.948;2022-12-29T02:57:37;1.51;80.14
64833;HTU21D;51290;45.060;38.948;2022-12-29T03:06:09;1.48;80.12
64833;HTU21D;51290;45.060;38.948;2022-12-29T03:08:50;1.45;80.12
64833;HTU21D;51290;45.060;38.948;2022-12-29T03:11:18;1.42;80.14
64833;HTU21D;51290;45.060;38.948;2022-12-29T03:14:09;1.41;80.17
64833;HTU21D;51290;45.060;38.948;2022-12-29T03:20:07;1.38;80.18
64833;HTU21D;51290;45.060;38.948;2022-12-29T03:22:58;1.38;80.18
64833;HTU21D;51290;45.060;38.948;2022-12-29T03:25:32;1.36;80.22
64833;HTU21D;51290;45.060;38.948;2022-12-29T03:30:48;1.34;80.26
64833;HTU21D;51290;45.060;38.948;2022-12-29T03:33:35;1.33;80.26
64833;HTU21D;51290;45.060;38.948;2022-12-29T03:36:08;1.32;80.30
64833;HTU21D;51290;45.060;38.948;2022-12-29T03:38:40;1.31;80.30
64833;HTU21D;51290;45.060;38.948;2022-12-29T03:41:28;1.29;80.29
64833;HTU21D;51290;45.060;38.948;2022-12-29T03:43:58;1.27;80.27
64833;HTU21D;51290;45.060;38.948;2022-12-29T03:46:24;1.27;80.27
64833;HTU21D;51290;45.060;38.948;2022-12-29T03:48:50;1.24;80.27
64833;HTU21D;51290;45.060;38.948;2022-12-29T03:51:16;1.24;80.28
64833;HTU21D;51290;45.060;38.948;2022-12-29T03:53:42;1.23;80.34
64833;HTU21D;51290;45.060;38.948;2022-12-29T03:56:08;1.23;80.39
64833;HTU21D;51290;45.060;38.948;2022-12-29T03:58:53;1.22;80.39
64833;HTU21D;51290;45.060;38.948;2022-12-29T04:01:48;1.22;80.40
64833;HTU21D;51290;45.060;38.948;2022-12-29T04:04:15;1.22;80.41
64833;HTU21D;51290;45.060;38.948;2022-12-29T04:06:41;1.22;80.39
64833;HTU21D;51290;45.060;38.948;2022-12-29T04:09:09;1.21;80.43
64833;HTU21D;51290;45.060;38.948;2022-12-29T04:11:40;1.23;80.40
64833;HTU21D;51290;45.060;38.948;2022-12-29T04:14:07;1.21;80.37
64833;HTU21D;51290;45.060;38.948;2022-12-29T04:16:51;1.19;80.39
64833;HTU21D;51290;45.060;38.948;2022-12-29T04:19:17;1.18;80.41
64833;HTU21D;51290;45.060;38.948;2022-12-29T04:21:44;1.18;80.44
64833;HTU21D;51290;45.060;38.948;2022-12-29T04:24:10;1.19;80.46
64833;HTU21D;51290;45.060;38.948;2022-12-29T04:29:47;1.17;80.45
64833;HTU21D;51290;45.060;38.948;2022-12-29T04:32:32;1.17;80.43
64833;HTU21D;51290;45.060;38.948;2022-12-29T04:34:58;1.14;80.46
64833;HTU21D;51290;45.060;38.948;2022-12-29T04:37:24;1.16;80.44
64833;HTU21D;51290;45.060;38.948;2022-12-29T04:39:50;1.14;80.41
64833;HTU21D;51290;45.060;38.948;2022-12-29T04:42:16;1.13;80.48
64833;HTU21D;51290;45.060;38.948;2022-12-29T04:44:43;1.12;80.52
64833;HTU21D;51290;45.060;38.948;2022-12-29T04:47:13;1.13;80.52
64833;HTU21D;51290;45.060;38.948;2022-12-29T04:49:59;1.12;80.51
64833;HTU21D;51290;45.060;38.948;2022-12-29T04:52:48;1.11;80.51
64833;HTU21D;51290;45.060;38.948;2022-12-29T04:55:32;1.10;80.53
64833;HTU21D;51290;45.060;38.948;2022-12-29T04:57:59;1.09;80.58
64833;HTU21D;51290;45.060;38.948;2022-12-29T05:00:28;1.11;80.59
64833;HTU21D;51290;45.060;38.948;2022-12-29T05:03:13;1.12;80.62
64833;HTU21D;51290;45.060;38.948;2022-12-29T05:05:41;1.13;80.62
64833;HTU21D;51290;45.060;38.948;2022-12-29T05:08:08;1.13;80.63
64833;HTU21D;51290;45.060;38.948;2022-12-29T05:10:34;1.13;80.63
64833;HTU21D;51290;45.060;38.948;2022-12-29T05:13:05;1.14;80.69
64833;HTU21D;51290;45.060;38.948;2022-12-29T05:15:31;1.16;80.76
64833;HTU21D;51290;45.060;38.948;2022-12-29T05:17:57;1.18;80.82
64833;HTU21D;51290;45.060;38.948;2022-12-29T05:20:24;1.21;80.85
64833;HTU21D;51290;45.060;38.948;2022-12-29T05:22:50;1.26;80.86
64833;HTU21D;51290;45.060;38.948;2022-12-29T05:25:16;1.29;80.85
64833;HTU21D;51290;45.060;38.948;2022-12-29T05:31:08;1.40;80.80
64833;HTU21D;51290;45.060;38.948;2022-12-29T05:33:53;1.45;80.77
64833;HTU21D;51290;45.060;38.948;2022-12-29T05:36:20;1.48;80.75
64833;HTU21D;51290;45.060;38.948;2022-12-29T05:41:34;1.56;80.70
64833;HTU21D;51290;45.060;38.948;2022-12-29T05:44:10;1.61;80.74
64833;HTU21D;51290;45.060;38.948;2022-12-29T05:47:33;1.65;80.70
64833;HTU21D;51290;45.060;38.948;2022-12-29T05:50:26;1.68;80.69
64833;HTU21D;51290;45.060;38.948;2022-12-29T05:53:10;1.72;80.70
64833;HTU21D;51290;45.060;38.948;2022-12-29T05:55:37;1.76;80.68
64833;HTU21D;51290;45.060;38.948;2022-12-29T05:58:03;1.79;80.66
64833;HTU21D;51290;45.060;38.948;2022-12-29T06:00:30;1.81;80.67
64833;HTU21D;51290;45.060;38.948;2022-12-29T06:02:58;1.85;80.72
64833;HTU21D;51290;45.060;38.948;2022-12-29T06:05:25;1.88;80.74
64833;HTU21D;51290;45.060;38.948;2022-12-29T06:07:51;1.92;80.73
64833;HTU21D;51290;45.060;38.948;2022-12-29T06:10:17;1.96;80.75
64833;HTU21D;51290;45.060;38.948;2022-12-29T06:12:54;2.01;80.80
64833;HTU21D;51290;45.060;38.948;2022-12-29T06:15:20;2.10;80.81
64833;HTU21D;51290;45.060;38.948;2022-12-29T06:17:49;2.17;80.78
64833;HTU21D;51290;45.060;38.948;2022-12-29T06:20:15;2.27;80.81
64833;HTU21D;51290;45.060;38.948;2022-12-29T06:22:41;2.35;80.80
64833;HTU21D;51290;45.060;38.948;2022-12-29T06:25:08;2.44;80.76
64833;HTU21D;51290;45.060;38.948;2022-12-29T06:27:35;2.54;80.70
64833;HTU21D;51290;45.060;38.948;2022-12-29T06:30:01;2.59;80.60
64833;HTU21D;51290;45.060;38.948;2022-12-29T06:32:27;2.66;80.56
64833;HTU21D;51290;45.060;38.948;2022-12-29T06:34:59;2.68;80.49
64833;HTU21D;51290;45.060;38.948;2022-12-29T06:37:25;2.71;80.40
64833;HTU21D;51290;45.060;38.948;2022-12-29T06:39:51;2.72;80.40
64833;HTU21D;51290;45.060;38.948;2022-12-29T06:42:20;2.75;80.47
64833;HTU21D;51290;45.060;38.948;2022-12-29T06:44:49;2.80;80.52
64833;HTU21D;51290;45.060;38.948;2022-12-29T06:47:15;2.85;80.60
64833;HTU21D;51290;45.060;38.948;2022-12-29T06:49:41;2.93;80.66
64833;HTU21D;51290;45.060;38.948;2022-12-29T06:52:07;3.02;80.70
64833;HTU21D;51290;45.060;38.948;2022-12-29T06:54:33;3.15;80.72
64833;HTU21D;51290;45.060;38.948;2022-12-29T06:57:00;3.29;80.71
64833;HTU21D;51290;45.060;38.948;2022-12-29T06:59:27;3.45;80.66
64833;HTU21D;51290;45.060;38.948;2022-12-29T07:01:54;3.60;80.61
64833;HTU21D;51290;45.060;38.948;2022-12-29T07:04:20;3.76;80.58
64833;HTU21D;51290;45.060;38.948;2022-12-29T07:06:46;3.94;80.53
64833;HTU21D;51290;45.060;38.948;2022-12-29T07:09:12;4.12;80.38
64833;HTU21D;51290;45.060;38.948;2022-12-29T07:11:38;4.28;80.16
64833;HTU21D;51290;45.060;38.948;2022-12-29T07:14:04;4.41;79.97
64833;HTU21D;51290;45.060;38.948;2022-12-29T07:16:31;4.51;79.80
64833;HTU21D;51290;45.060;38.948;2022-12-29T07:18:57;4.60;79.71
64833;HTU21D;51290;45.060;38.948;2022-12-29T07:21:25;4.69;79.70
64833;HTU21D;51290;45.060;38.948;2022-12-29T07:23:51;4.78;79.65
64833;HTU21D;51290;45.060;38.948;2022-12-29T07:26:16;4.86;79.55
64833;HTU21D;51290;45.060;38.948;2022-12-29T07:28:43;4.94;79.51
64833;HTU21D;51290;45.060;38.948;2022-12-29T07:31:17;5.03;79.43
64833;HTU21D;51290;45.060;38.948;2022-12-29T07:33:44;5.11;79.37
64833;HTU21D;51290;45.060;38.948;2022-12-29T07:36:12;5.19;79.33
64833;HTU21D;51290;45.060;38.948;2022-12-29T07:38:38;5.31;79.30
64833;HTU21D;51290;45.060;38.948;2022-12-29T07:41:04;5.40;79.25
64833;HTU21D;51290;45.060;38.948;2022-12-29T07:43:30;5.53;79.14
64833;HTU21D;51290;45.060;38.948;2022-12-29T07:46:22;5.62;78.88
64833;HTU21D;51290;45.060;38.948;2022-12-29T07:48:48;5.66;78.72
64833;HTU21D;51290;45.060;38.948;2022-12-29T07:51:14;5.69;78.60
64833;HTU21D;51290;45.060;38.948;2022-12-29T07:53:41;5.76;78.67
64833;HTU21D;51290;45.060;38.948;2022-12-29T07:56:07;5.81;78.61
64833;HTU21D;51290;45.060;38.948;2022-12-29T07:58:32;5.86;78.43
64833;HTU21D;51290;45.060;38.948;2022-12-29T08:00:58;5.93;78.43
64833;HTU21D;51290;45.060;38.948;2022-12-29T08:03:24;5.97;78.23
64833;HTU21D;51290;45.060;38.948;2022-12-29T08:05:51;5.99;78.10
64833;HTU21D;51290;45.060;38.948;2022-12-29T08:08:17;6.05;78.18
64833;HTU21D;51290;45.060;38.948;2022-12-29T08:10:43;6.11;78.18
64833;HTU21D;51290;45.060;38.948;2022-12-29T08:13:09;6.16;77.99
64833;HTU21D;51290;45.060;38.948;2022-12-29T08:15:37;6.16;77.85
64833;HTU21D;51290;45.060;38.948;2022-12-29T08:18:03;6.21;77.89
64833;HTU21D;51290;45.060;38.948;2022-12-29T08:20:52;6.26;77.86
64833;HTU21D;51290;45.060;38.948;2022-12-29T08:23:18;6.26;77.68
64833;HTU21D;51290;45.060;38.948;2022-12-29T08:25:44;6.27;77.60
64833;HTU21D;51290;45.060;38.948;2022-12-29T08:28:10;6.26;77.58
64833;HTU21D;51290;45.060;38.948;2022-12-29T08:30:36;6.25;77.60
64833;HTU21D;51290;45.060;38.948;2022-12-29T08:33:02;6.26;77.61
64833;HTU21D;51290;45.060;38.948;2022-12-29T08:38:15;6.31;77.62
64833;HTU21D;51290;45.060;38.948;2022-12-29T08:40:41;6.33;77.47
64833;HTU21D;51290;45.060;38.948;2022-12-29T08:43:07;6.34;77.47
64833;HTU21D;51290;45.060;38.948;2022-12-29T08:45:33;6.34;77.39
64833;HTU21D;51290;45.060;38.948;2022-12-29T08:47:59;6.36;77.36
64833;HTU21D;51290;45.060;38.948;2022-12-29T08:50:25;6.36;77.28
64833;HTU21D;51290;45.060;38.948;2022-12-29T08:52:51;6.36;77.24
64833;HTU21D;51290;45.060;38.948;2022-12-29T08:55:17;6.36;77.18
64833;HTU21D;51290;45.060;38.948;2022-12-29T08:57:43;6.31;76.98
64833;HTU21D;51290;45.060;38.948;2022-12-29T09:00:16;6.24;76.92
64833;HTU21D;51290;45.060;38.948;2022-12-29T09:02:42;6.19;77.01
64833;HTU21D;51290;45.060;38.948;2022-12-29T09:05:08;6.13;76.93
64833;HTU21D;51290;45.060;38.948;2022-12-29T09:07:35;6.09;76.89
64833;HTU21D;51290;45.060;38.948;2022-12-29T09:10:01;6.05;76.90
64833;HTU21D;51290;45.060;38.948;2022-12-29T09:12:28;6.00;76.95
64833;HTU21D;51290;45.060;38.948;2022-12-29T09:14:54;5.96;76.91
64833;HTU21D;51290;45.060;38.948;2022-12-29T09:17:19;5.90;76.83
64833;HTU21D;51290;45.060;38.948;2022-12-29T09:20:04;5.84;76.70
64833;HTU21D;51290;45.060;38.948;2022-12-29T09:22:30;5.78;76.58
64833;HTU21D;51290;45.060;38.948;2022-12-29T09:24:56;5.75;76.60
64833;HTU21D;51290;45.060;38.948;2022-12-29T09:27:22;5.72;76.57
64833;HTU21D;51290;45.060;38.948;2022-12-29T09:29:48;5.71;76.59
64833;HTU21D;51290;45.060;38.948;2022-12-29T09:32:14;5.71;76.52
64833;HTU21D;51290;45.060;38.948;2022-12-29T09:34:40;5.72;76.50
64833;HTU21D;51290;45.060;38.948;2022-12-29T09:37:06;5.74;76.53
64833;HTU21D;51290;45.060;38.948;2022-12-29T09:39:32;5.75;76.51
64833;HTU21D;51290;45.060;38.948;2022-12-29T09:42:15;5.78;76.51
64833;HTU21D;51290;45.060;38.948;2022-12-29T09:45:00;5.81;76.53
64833;HTU21D;51290;45.060;38.948;2022-12-29T09:47:29;5.86;76.43
64833;HTU21D;51290;45.060;38.948;2022-12-29T09:50:03;5.89;76.34
64833;HTU21D;51290;45.060;38.948;2022-12-29T09:52:45;5.91;76.26
64833;HTU21D;51290;45.060;38.948;2022-12-29T09:55:17;5.95;76.25
64833;HTU21D;51290;45.060;38.948;2022-12-29T09:57:54;6.00;76.14
64833;HTU21D;51290;45.060;38.948;2022-12-29T10:00:33;6.06;75.95
64833;HTU21D;51290;45.060;38.948;2022-12-29T10:03:14;6.11;75.83
64833;HTU21D;51290;45.060;38.948;2022-12-29T10:05:54;6.14;75.70
64833;HTU21D;51290;45.060;38.948;2022-12-29T10:11:54;6.24;75.33
64833;HTU21D;51290;45.060;38.948;2022-12-29T10:17:20;6.28;75.05
64833;HTU21D;51290;45.060;38.948;2022-12-29T10:19:57;6.29;75.05
64833;HTU21D;51290;45.060;38.948;2022-12-29T10:22:48;6.31;75.17
64833;HTU21D;51290;45.060;38.948;2022-12-29T10:25:22;6.33;75.22
64833;HTU21D;51290;45.060;38.948;2022-12-29T10:27:49;6.36;75.18
64833;HTU21D;51290;45.060;38.948;2022-12-29T10:30:16;6.38;74.97
64833;HTU21D;51290;45.060;38.948;2022-12-29T10:32:50;6.40;74.96
64833;HTU21D;51290;45.060;38.948;2022-12-29T10:35:26;6.42;74.76
64833;HTU21D;51290;45.060;38.948;2022-12-29T10:40:31;6.44;74.74
64833;HTU21D;51290;45.060;38.948;2022-12-29T10:42:59;6.46;74.81
64833;HTU21D;51290;45.060;38.948;2022-12-29T10:45:29;6.49;74.84
64833;HTU21D;51290;45.060;38.948;2022-12-29T10:48:03;6.52;74.88
64833;HTU21D;51290;45.060;38.948;2022-12-29T10:50:30;6.56;74.83
64833;HTU21D;51290;45.060;38.948;2022-12-29T10:52:59;6.61;74.96
64833;HTU21D;51290;45.060;38.948;2022-12-29T10:55:30;6.71;75.13
64833;HTU21D;51290;45.060;38.948;2022-12-29T10:58:02;6.85;75.15
64833;HTU21D;51290;45.060;38.948;2022-12-29T11:00:31;7.00;75.08
64833;HTU21D;51290;45.060;38.948;2022-12-29T11:05:59;7.41;74.52
64833;HTU21D;51290;45.060;38.948;2022-12-29T11:08:38;7.63;74.27
64833;HTU21D;51290;45.060;38.948;2022-12-29T11:11:09;7.76;73.43
64833;HTU21D;51290;45.060;38.948;2022-12-29T11:13:48;7.84;73.37
64833;HTU21D;51290;45.060;38.948;2022-12-29T11:16:15;7.84;73.26
64833;HTU21D;51290;45.060;38.948;2022-12-29T11:18:52;7.79;73.16
64833;HTU21D;51290;45.060;38.948;2022-12-29T11:24:14;7.71;73.17
64833;HTU21D;51290;45.060;38.948;2022-12-29T11:26:44;7.64;73.17
64833;HTU21D;51290;45.060;38.948;2022-12-29T11:31:43;7.53;73.07
64833;HTU21D;51290;45.060;38.948;2022-12-29T11:34:24;7.45;73.01
64833;HTU21D;51290;45.060;38.948;2022-12-29T11:36:54;7.41;73.08
64833;HTU21D;51290;45.060;38.948;2022-12-29T11:42:17;7.31;73.33
64833;HTU21D;51290;45.060;38.948;2022-12-29T11:44:46;7.27;73.38
64833;HTU21D;51290;45.060;38.948;2022-12-29T11:47:29;7.24;73.44
64833;HTU21D;51290;45.060;38.948;2022-12-29T11:49:59;7.22;72.88
64833;HTU21D;51290;45.060;38.948;2022-12-29T11:52:28;7.19;72.97
64833;HTU21D;51290;45.060;38.948;2022-12-29T11:54:56;7.17;72.97
64833;HTU21D;51290;45.060;38.948;2022-12-29T11:57:25;7.13;72.99
64833;HTU21D;51290;45.060;38.948;2022-12-29T11:59:55;7.12;72.96
64833;HTU21D;51290;45.060;38.948;2022-12-29T12:02:39;7.11;72.87
64833;HTU21D;51290;45.060;38.948;2022-12-29T12:05:22;7.09;72.93
64833;HTU21D;51290;45.060;38.948;2022-12-29T12:08:23;7.10;72.95
64833;HTU21D;51290;45.060;38.948;2022-12-29T12:10:53;7.08;72.91
64833;HTU21D;51290;45.060;38.948;2022-12-29T12:13:28;7.07;72.74
64833;HTU21D;51290;45.060;38.948;2022-12-29T12:16:08;7.08;72.70
64833;HTU21D;51290;45.060;38.948;2022-12-29T12:18:49;7.05;72.64
64833;HTU21D;51290;45.060;38.948;2022-12-29T12:21:40;7.02;72.57
64833;HTU21D;51290;45.060;38.948;2022-12-29T12:27:28;6.93;72.58
64833;HTU21D;51290;45.060;38.948;2022-12-29T12:32:44;6.82;72.63
64833;HTU21D;51290;45.060;38.948;2022-12-29T12:35:13;6.79;72.60
64833;HTU21D;51290;45.060;38.948;2022-12-29T12:38:06;6.73;72.61
64833;HTU21D;51290;45.060;38.948;2022-12-29T12:41:29;6.69;72.64
64833;HTU21D;51290;45.060;38.948;2022-12-29T12:43:39;6.65;72.62
64833;HTU21D;51290;45.060;38.948;2022-12-29T12:46:13;6.63;72.63
64833;HTU21D;51290;45.060;38.948;2022-12-29T12:54:46;6.57;72.83
64833;HTU21D;51290;45.060;38.948;2022-12-29T12:59:58;6.65;72.90
64833;HTU21D;51290;45.060;38.948;2022-12-29T13:02:40;6.69;72.87
64833;HTU21D;51290;45.060;38.948;2022-12-29T13:10:33;6.80;72.66
64833;HTU21D;51290;45.060;38.948;2022-12-29T13:16:13;6.88;72.58
64833;HTU21D;51290;45.060;38.948;2022-12-29T13:26:50;7.07;72.29
64833;HTU21D;51290;45.060;38.948;2022-12-29T13:29:50;7.07;72.22
64833;HTU21D;51290;45.060;38.948;2022-12-29T13:32:38;7.05;72.16
64833;HTU21D;51290;45.060;38.948;2022-12-29T13:38:25;6.99;72.06
64833;HTU21D;51290;45.060;38.948;2022-12-29T13:40:36;6.94;72.02
64833;HTU21D;51290;45.060;38.948;2022-12-29T13:43:05;6.89;72.02
64833;HTU21D;51290;45.060;38.948;2022-12-29T13:45:32;6.84;72.03
64833;HTU21D;51290;45.060;38.948;2022-12-29T13:48:09;6.79;72.04
64833;HTU21D;51290;45.060;38.948;2022-12-29T13:50:39;6.70;72.00
64833;HTU21D;51290;45.060;38.948;2022-12-29T13:55:55;6.57;72.09
64833;HTU21D;51290;45.060;38.948;2022-12-29T14:01:22;6.45;71.96
64833;HTU21D;51290;45.060;38.948;2022-12-29T14:03:52;6.37;71.92
64833;HTU21D;51290;45.060;38.948;2022-12-29T14:06:26;6.28;71.95
64833;HTU21D;51290;45.060;38.948;2022-12-29T14:09:04;6.19;72.03
64833;HTU21D;51290;45.060;38.948;2022-12-29T14:11:36;6.15;72.13
64833;HTU21D;51290;45.060;38.948;2022-12-29T14:14:18;6.10;72.16
64833;HTU21D;51290;45.060;38.948;2022-12-29T14:16:47;6.07;72.10
64833;HTU21D;51290;45.060;38.948;2022-12-29T14:19:21;6.00;72.05
64833;HTU21D;51290;45.060;38.948;2022-12-29T14:21:58;5.95;72.02
64833;HTU21D;51290;45.060;38.948;2022-12-29T14:34:56;5.77;72.42
64833;HTU21D;51290;45.060;38.948;2022-12-29T14:42:33;5.91;72.57
64833;HTU21D;51290;45.060;38.948;2022-12-29T14:45:00;5.95;72.51
64833;HTU21D;51290;45.060;38.948;2022-12-29T14:57:50;6.19;72.22
64833;HTU21D;51290;45.060;38.948;2022-12-29T15:00:35;6.24;72.20
64833;HTU21D;51290;45.060;38.948;2022-12-29T15:03:16;6.27;72.12
64833;HTU21D;51290;45.060;38.948;2022-12-29T15:05:50;6.30;72.03
64833;HTU21D;51290;45.060;38.948;2022-12-29T15:08:31;6.34;71.95
64833;HTU21D;51290;45.060;38.948;2022-12-29T15:11:03;6.36;71.84
64833;HTU21D;51290;45.060;38.948;2022-12-29T15:13:38;6.37;71.78
64833;HTU21D;51290;45.060;38.948;2022-12-29T15:16:13;6.38;71.74
64833;HTU21D;51290;45.060;38.948;2022-12-29T15:18:46;6.41;71.72
64833;HTU21D;51290;45.060;38.948;2022-12-29T15:21:13;6.42;71.63
64833;HTU21D;51290;45.060;38.948;2022-12-29T15:23:42;6.43;71.51
64833;HTU21D;51290;45.060;38.948;2022-12-29T15:26:09;6.45;71.44
64833;HTU21D;51290;45.060;38.948;2022-12-29T15:28:43;6.48;71.38
64833;HTU21D;51290;45.060;38.948;2022-12-29T15:31:15;6.52;71.26
64833;HTU21D;51290;45.060;38.948;2022-12-29T15:33:45;6.55;71.19
64833;HTU21D;51290;45.060;38.948;2022-12-29T15:36:27;6.59;71.10
64833;HTU21D;51290;45.060;38.948;2022-12-29T15:38:53;6.60;70.97
64833;HTU21D;51290;45.060;38.948;2022-12-29T15:44:21;6.59;70.81
64833;HTU21D;51290;45.060;38.948;2022-12-29T15:46:49;6.56;70.69
64833;HTU21D;51290;45.060;38.948;2022-12-29T15:49:16;6.55;70.64
64833;HTU21D;51290;45.060;38.948;2022-12-29T15:51:42;6.53;70.54
64833;HTU21D;51290;45.060;38.948;2022-12-29T15:54:20;6.46;70.47
64833;HTU21D;51290;45.060;38.948;2022-12-29T15:56:47;6.39;70.44
64833;HTU21D;51290;45.060;38.948;2022-12-29T15:59:28;6.33;70.50
64833;HTU21D;51290;45.060;38.948;2022-12-29T16:01:56;6.27;70.53
64833;HTU21D;51290;45.060;38.948;2022-12-29T16:04:23;6.23;70.55
64833;HTU21D;51290;45.060;38.948;2022-12-29T16:07:02;6.16;70.58
64833;HTU21D;51290;45.060;38.948;2022-12-29T16:09:32;6.10;70.58
64833;HTU21D;51290;45.060;38.948;2022-12-29T16:12:04;6.10;70.64
64833;HTU21D;51290;45.060;38.948;2022-12-29T16:14:38;6.07;70.73
64833;HTU21D;51290;45.060;38.948;2022-12-29T16:17:06;6.06;70.72
64833;HTU21D;51290;45.060;38.948;2022-12-29T16:19:37;6.05;70.68
64833;HTU21D;51290;45.060;38.948;2022-12-29T16:22:12;6.02;70.65
64833;HTU21D;51290;45.060;38.948;2022-12-29T16:24:43;6.04;70.63
64833;HTU21D;51290;45.060;38.948;2022-12-29T16:27:19;6.00;70.58
64833;HTU21D;51290;45.060;38.948;2022-12-29T16:29:47;6.00;70.55
64833;HTU21D;51290;45.060;38.948;2022-12-29T16:32:26;5.98;70.51
64833;HTU21D;51290;45.060;38.948;2022-12-29T16:35:13;5.95;70.48
64833;HTU21D;51290;45.060;38.948;2022-12-29T16:37:39;5.90;70.50
64833;HTU21D;51290;45.060;38.948;2022-12-29T16:40:24;5.83;70.47
64833;HTU21D;51290;45.060;38.948;2022-12-29T16:43:01;5.78;70.50
64833;HTU21D;51290;45.060;38.948;2022-12-29T16:46:07;5.70;70.53
64833;HTU21D;51290;45.060;38.948;2022-12-29T16:48:35;5.66;70.52
64833;HTU21D;51290;45.060;38.948;2022-12-29T16:51:03;5.57;70.58
64833;HTU21D;51290;45.060;38.948;2022-12-29T16:53:35;5.52;70.59
64833;HTU21D;51290;45.060;38.948;2022-12-29T16:56:22;5.47;70.67
64833;HTU21D;51290;45.060;38.948;2022-12-29T16:59:30;5.42;70.71
64833;HTU21D;51290;45.060;38.948;2022-12-29T17:01:58;5.37;70.80
64833;HTU21D;51290;45.060;38.948;2022-12-29T17:04:25;5.35;70.86
64833;HTU21D;51290;45.060;38.948;2022-12-29T17:06:51;5.34;70.95
64833;HTU21D;51290;45.060;38.948;2022-12-29T17:09:22;5.34;71.05
64833;HTU21D;51290;45.060;38.948;2022-12-29T17:11:51;5.37;71.10
64833;HTU21D;51290;45.060;38.948;2022-12-29T17:14:30;5.42;71.10
64833;HTU21D;51290;45.060;38.948;2022-12-29T17:16:57;5.48;71.08
64833;HTU21D;51290;45.060;38.948;2022-12-29T17:19:31;5.52;71.06
64833;HTU21D;51290;45.060;38.948;2022-12-29T17:21:57;5.57;71.05
64833;HTU21D;51290;45.060;38.948;2022-12-29T17:24:24;5.62;71.03
64833;HTU21D;51290;45.060;38.948;2022-12-29T17:26:53;5.68;70.95
64833;HTU21D;51290;45.060;38.948;2022-12-29T17:31:56;5.77;70.85
64833;HTU21D;51290;45.060;38.948;2022-12-29T17:34:22;5.81;70.79
64833;HTU21D;51290;45.060;38.948;2022-12-29T17:36:48;5.85;70.71
64833;HTU21D;51290;45.060;38.948;2022-12-29T17:39:14;5.89;70.61
64833;HTU21D;51290;45.060;38.948;2022-12-29T17:41:40;5.93;70.52
64833;HTU21D;51290;45.060;38.948;2022-12-29T17:44:06;5.95;70.49
64833;HTU21D;51290;45.060;38.948;2022-12-29T17:47:21;5.99;70.50
64833;HTU21D;51290;45.060;38.948;2022-12-29T17:49:47;6.01;70.47
64833;HTU21D;51290;45.060;38.948;2022-12-29T17:52:15;6.05;70.42
64833;HTU21D;51290;45.060;38.948;2022-12-29T17:54:48;6.08;70.38
64833;HTU21D;51290;45.060;38.948;2022-12-29T17:57:15;6.10;70.37
64833;HTU21D;51290;45.060;38.948;2022-12-29T17:59:42;6.13;70.32
64833;HTU21D;51290;45.060;38.948;2022-12-29T18:02:25;6.15;70.32
64833;HTU21D;51290;45.060;38.948;2022-12-29T18:04:52;6.20;70.28
64833;HTU21D;51290;45.060;38.948;2022-12-29T18:07:18;6.22;70.23
64833;HTU21D;51290;45.060;38.948;2022-12-29T18:09:44;6.24;70.20
64833;HTU21D;51290;45.060;38.948;2022-12-29T18:12:26;6.24;70.17
64833;HTU21D;51290;45.060;38.948;2022-12-29T18:14:53;6.26;70.14
64833;HTU21D;51290;45.060;38.948;2022-12-29T18:17:19;6.27;70.13